Terminal Aerodrome Forecast
Issued by NWS

Home | Current Version | Previous Version | Graphics & Text | Print | Product List | Glossary On
Versions: 1 2 3 4 5 6 7 8 9 10 11 12 13 14 15 16 17 18 19 20 21
000
FTUS43 KICT 191100
TAFRSL
TAF
KRSL 191125Z 1912/2012 17013KT P6SM BKN200
     FM191600 19015KT P6SM BKN130
     FM200000 16006KT P6SM SCT040 BKN080
     FM201000 01006KT P6SM BKN060=

USA.gov is the U.S. government's official web portal to all federal, state and local government web resources and services.